createdAt,value
2018-08-22T00:00:59.564Z,973.92
2018-08-22T00:01:59.558Z,973.89
2018-08-22T00:02:59.560Z,973.91
2018-08-22T00:03:59.561Z,973.86
2018-08-22T00:04:59.558Z,973.87
2018-08-22T00:05:59.562Z,973.91
2018-08-22T00:06:59.557Z,973.89
2018-08-22T00:07:59.560Z,973.88
2018-08-22T00:08:59.616Z,973.92
2018-08-22T00:09:59.598Z,973.96
2018-08-22T00:10:59.550Z,973.93
2018-08-22T00:11:59.565Z,973.94
2018-08-22T00:12:59.547Z,973.93
2018-08-22T00:13:59.546Z,973.92
2018-08-22T00:14:59.590Z,973.93
2018-08-22T00:15:59.550Z,973.90
2018-08-22T00:16:59.539Z,973.92
2018-08-22T00:17:59.553Z,973.91
2018-08-22T00:18:59.544Z,973.90
2018-08-22T00:19:59.597Z,973.91
2018-08-22T00:20:59.533Z,973.89
2018-08-22T00:21:59.537Z,973.91
2018-08-22T00:22:59.580Z,973.90
2018-08-22T00:23:59.537Z,973.92
2018-08-22T00:24:59.529Z,973.90
2018-08-22T00:25:59.531Z,973.89
2018-08-22T00:26:59.533Z,973.88
2018-08-22T00:27:59.532Z,973.89
2018-08-22T00:28:59.532Z,973.90
2018-08-22T00:29:59.523Z,973.85
2018-08-22T00:30:59.553Z,973.86
2018-08-22T00:31:59.526Z,973.84
2018-08-22T00:32:59.529Z,973.83
2018-08-22T00:33:59.516Z,973.83
2018-08-22T00:34:59.522Z,973.80
2018-08-22T00:35:59.515Z,973.81
2018-08-22T00:36:59.517Z,973.78
2018-08-22T00:37:59.510Z,973.77
2018-08-22T00:38:59.510Z,973.79
2018-08-22T00:39:59.536Z,973.79
2018-08-22T00:40:59.512Z,973.81
2018-08-22T00:41:59.513Z,973.76
2018-08-22T00:42:59.503Z,973.77
2018-08-22T00:43:59.507Z,973.76
2018-08-22T00:44:59.501Z,973.79
2018-08-22T00:45:59.514Z,973.78
2018-08-22T00:46:59.503Z,973.76
2018-08-22T00:47:59.498Z,973.76
2018-08-22T00:48:59.496Z,973.76
2018-08-22T00:49:59.495Z,973.75
2018-08-22T00:50:59.498Z,973.72
2018-08-22T00:51:59.491Z,973.74
2018-08-22T00:52:59.488Z,973.73
2018-08-22T00:53:59.487Z,973.72
2018-08-22T00:54:59.491Z,973.70
2018-08-22T00:55:59.486Z,973.70
2018-08-22T00:56:59.483Z,973.71
2018-08-22T00:57:59.484Z,973.68
2018-08-22T00:58:59.547Z,973.68
2018-08-22T00:59:59.482Z,973.66
2018-08-22T01:00:59.476Z,973.68
2018-08-22T01:01:59.477Z,973.70
2018-08-22T01:02:59.476Z,973.70
2018-08-22T01:03:59.479Z,973.70
2018-08-22T01:04:59.471Z,973.74
2018-08-22T01:05:59.469Z,973.76
2018-08-22T01:06:59.466Z,973.72
2018-08-22T01:07:59.472Z,973.75
2018-08-22T01:08:59.466Z,973.71
2018-08-22T01:09:59.464Z,973.69
2018-08-22T01:10:59.463Z,973.71
2018-08-22T01:11:59.467Z,973.73
2018-08-22T01:12:59.462Z,973.70
2018-08-22T01:13:59.461Z,973.73
2018-08-22T01:14:59.464Z,973.72
2018-08-22T01:15:59.457Z,973.73
2018-08-22T01:16:59.455Z,973.74
2018-08-22T01:17:59.458Z,973.71
2018-08-22T01:18:59.447Z,973.70
2018-08-22T01:19:59.451Z,973.64
2018-08-22T01:20:59.451Z,973.71
2018-08-22T01:21:59.453Z,973.67
2018-08-22T01:22:59.445Z,973.69
2018-08-22T01:23:59.442Z,973.69
2018-08-22T01:24:59.437Z,973.72
2018-08-22T01:25:59.439Z,973.74
2018-08-22T01:26:59.438Z,973.76
2018-08-22T01:27:59.436Z,973.72
2018-08-22T01:28:59.437Z,973.73
2018-08-22T01:29:59.428Z,973.72
2018-08-22T01:30:59.432Z,973.74
2018-08-22T01:31:59.441Z,973.73
2018-08-22T01:32:59.424Z,973.77
2018-08-22T01:33:59.421Z,973.76
2018-08-22T01:34:59.437Z,973.73
2018-08-22T01:35:59.424Z,973.76
2018-08-22T01:36:59.419Z,973.71
2018-08-22T01:37:59.417Z,973.70
2018-08-22T01:38:59.414Z,973.69
2018-08-22T01:39:59.412Z,973.69
2018-08-22T01:40:59.414Z,973.65
2018-08-22T01:41:59.414Z,973.67
2018-08-22T01:42:59.429Z,973.65
2018-08-22T01:43:59.409Z,973.66
2018-08-22T01:44:59.447Z,973.68
2018-08-22T01:45:59.402Z,973.68
2018-08-22T01:46:59.397Z,973.63
2018-08-22T01:47:59.444Z,973.64
2018-08-22T01:48:59.401Z,973.65
2018-08-22T01:49:59.388Z,973.63
2018-08-22T01:50:59.396Z,973.60
2018-08-22T01:51:59.392Z,973.63
2018-08-22T01:52:59.387Z,973.64
2018-08-22T01:53:59.386Z,973.61
2018-08-22T01:54:59.425Z,973.64
2018-08-22T01:55:59.379Z,973.66
2018-08-22T01:56:59.377Z,973.67
2018-08-22T01:57:59.375Z,973.69
2018-08-22T01:58:59.376Z,973.71
2018-08-22T01:59:59.377Z,973.69
2018-08-22T02:00:59.369Z,973.71
2018-08-22T02:01:59.371Z,973.71
2018-08-22T02:02:59.370Z,973.65
2018-08-22T02:03:59.363Z,973.73
2018-08-22T02:04:59.360Z,973.69
2018-08-22T02:05:59.363Z,973.66
2018-08-22T02:06:59.360Z,973.69
2018-08-22T02:07:59.356Z,973.73
2018-08-22T02:08:59.355Z,973.66
2018-08-22T02:09:59.350Z,973.71
2018-08-22T02:10:59.350Z,973.70
2018-08-22T02:11:59.345Z,973.74
2018-08-22T02:12:59.346Z,973.73
2018-08-22T02:13:59.347Z,973.70
2018-08-22T02:14:59.339Z,973.74
2018-08-22T02:15:59.338Z,973.72
2018-08-22T02:16:59.343Z,973.71
2018-08-22T02:17:59.389Z,973.69
2018-08-22T02:18:59.382Z,973.72
2018-08-22T02:19:59.331Z,973.74
2018-08-22T02:20:59.327Z,973.71
2018-08-22T02:21:59.338Z,973.70
2018-08-22T02:22:59.323Z,973.69
2018-08-22T02:23:59.321Z,973.69
2018-08-22T02:24:59.320Z,973.66
2018-08-22T02:25:59.318Z,973.65
2018-08-22T02:26:59.324Z,973.64
2018-08-22T02:27:59.360Z,973.63
2018-08-22T02:28:59.329Z,973.60
2018-08-22T02:29:59.308Z,973.61
2018-08-22T02:30:59.310Z,973.57
2018-08-22T02:31:59.309Z,973.57
2018-08-22T02:32:59.301Z,973.57
2018-08-22T02:33:59.300Z,973.58
2018-08-22T02:34:59.305Z,973.58
2018-08-22T02:35:59.295Z,973.56
2018-08-22T02:36:59.292Z,973.59
2018-08-22T02:37:59.291Z,973.61
2018-08-22T02:38:59.291Z,973.58
2018-08-22T02:39:59.293Z,973.64
2018-08-22T02:40:59.336Z,973.62
2018-08-22T02:41:59.289Z,973.67
2018-08-22T02:42:59.286Z,973.67
2018-08-22T02:43:59.284Z,973.68
2018-08-22T02:44:59.294Z,973.70
2018-08-22T02:45:59.280Z,973.69
2018-08-22T02:46:59.273Z,973.71
2018-08-22T02:47:59.273Z,973.69
2018-08-22T02:48:59.274Z,973.73
2018-08-22T02:49:59.268Z,973.70
2018-08-22T02:50:59.314Z,973.70
2018-08-22T02:51:59.260Z,973.73
2018-08-22T02:52:59.263Z,973.74
2018-08-22T02:53:59.263Z,973.70
2018-08-22T02:54:59.270Z,973.75
2018-08-22T02:55:59.254Z,973.74
2018-08-22T02:56:59.255Z,973.71
2018-08-22T02:57:59.245Z,973.67
2018-08-22T02:58:59.251Z,973.67
2018-08-22T02:59:59.243Z,973.68
2018-08-22T03:00:59.284Z,973.72
2018-08-22T03:01:59.238Z,973.67
2018-08-22T03:02:59.233Z,973.69
2018-08-22T03:03:59.239Z,973.69
2018-08-22T03:04:59.228Z,973.71
2018-08-22T03:05:59.230Z,973.74
2018-08-22T03:06:59.227Z,973.74
2018-08-22T03:07:59.253Z,973.71
2018-08-22T03:08:59.227Z,973.72
2018-08-22T03:09:59.218Z,973.76
2018-08-22T03:10:59.218Z,973.75
2018-08-22T03:11:59.216Z,973.77
2018-08-22T03:12:59.211Z,973.77
2018-08-22T03:13:59.210Z,973.77
2018-08-22T03:14:59.208Z,973.79
2018-08-22T03:15:59.205Z,973.83
2018-08-22T03:16:59.202Z,973.80
2018-08-22T03:17:59.199Z,973.77
2018-08-22T03:18:59.195Z,973.82
2018-08-22T03:19:59.192Z,973.79
2018-08-22T03:20:59.191Z,973.77
2018-08-22T03:21:59.185Z,973.79
2018-08-22T03:22:59.189Z,973.79
2018-08-22T03:23:59.180Z,973.83
2018-08-22T03:24:59.185Z,973.78
2018-08-22T03:25:59.190Z,973.80
2018-08-22T03:26:59.180Z,973.78
2018-08-22T03:27:59.176Z,973.80
2018-08-22T03:28:59.169Z,973.83
2018-08-22T03:29:59.168Z,973.79
2018-08-22T03:30:59.165Z,973.84
2018-08-22T03:31:59.168Z,973.82
2018-08-22T03:32:59.159Z,973.83
2018-08-22T03:33:59.154Z,973.82
2018-08-22T03:34:59.159Z,973.82
2018-08-22T03:35:59.153Z,973.77
2018-08-22T03:36:59.146Z,973.81
2018-08-22T03:37:59.145Z,973.84
2018-08-22T03:38:59.151Z,973.82
2018-08-22T03:39:59.139Z,973.81
2018-08-22T03:40:59.142Z,973.79
2018-08-22T03:41:59.135Z,973.81
2018-08-22T03:42:59.133Z,973.82
2018-08-22T03:43:59.178Z,973.86
2018-08-22T03:44:59.127Z,973.84
2018-08-22T03:45:59.132Z,973.84
2018-08-22T03:46:59.129Z,973.85
2018-08-22T03:47:59.124Z,973.86
2018-08-22T03:48:59.118Z,973.88
2018-08-22T03:49:59.113Z,973.87
2018-08-22T03:50:59.114Z,973.86
2018-08-22T03:51:59.109Z,973.92
2018-08-22T03:52:59.111Z,973.90
2018-08-22T03:53:59.150Z,973.94
2018-08-22T03:54:59.102Z,973.93
2018-08-22T03:55:59.105Z,973.95
2018-08-22T03:56:59.099Z,973.93
2018-08-22T03:57:59.101Z,973.97
2018-08-22T03:58:59.096Z,973.92
2018-08-22T03:59:59.091Z,973.94
2018-08-22T04:00:59.118Z,973.95
2018-08-22T04:01:59.089Z,973.94
2018-08-22T04:02:59.079Z,973.93
2018-08-22T04:03:59.118Z,973.95
2018-08-22T04:04:59.075Z,973.96
2018-08-22T04:05:59.073Z,973.97
2018-08-22T04:06:59.069Z,973.93
2018-08-22T04:07:59.070Z,974.01
2018-08-22T04:08:59.069Z,973.97
2018-08-22T04:09:59.062Z,973.97
2018-08-22T04:10:59.063Z,973.99
2018-08-22T04:11:59.057Z,973.98
2018-08-22T04:12:59.055Z,974.00
2018-08-22T04:13:59.056Z,974.02
2018-08-22T04:14:59.053Z,973.99
2018-08-22T04:15:59.047Z,974.00
2018-08-22T04:16:59.046Z,974.04
2018-08-22T04:17:59.043Z,974.01
2018-08-22T04:18:59.037Z,974.02
2018-08-22T04:19:59.042Z,974.02
2018-08-22T04:20:59.035Z,974.01
2018-08-22T04:21:59.037Z,974.03
2018-08-22T04:22:59.030Z,974.02
2018-08-22T04:23:59.029Z,973.99
2018-08-22T04:24:59.027Z,974.01
2018-08-22T04:25:59.070Z,973.98
2018-08-22T04:26:59.021Z,974.00
2018-08-22T04:27:59.015Z,973.98
2018-08-22T04:28:59.014Z,973.96
2018-08-22T04:29:59.014Z,974.02
2018-08-22T04:30:59.052Z,974.01
2018-08-22T04:31:59.004Z,974.01
2018-08-22T04:32:59.001Z,974.00
2018-08-22T04:33:59.000Z,974.02
2018-08-22T04:34:58.994Z,974.01
2018-08-22T04:35:59.039Z,974.04
2018-08-22T04:36:58.990Z,974.03
2018-08-22T04:37:58.991Z,974.05
2018-08-22T04:38:58.985Z,974.08
2018-08-22T04:39:58.985Z,974.08
2018-08-22T04:40:58.978Z,974.08
2018-08-22T04:41:58.980Z,974.12
2018-08-22T04:42:58.976Z,974.12
2018-08-22T04:43:58.978Z,974.12
2018-08-22T04:44:58.972Z,974.14
2018-08-22T04:45:59.003Z,974.14
2018-08-22T04:46:58.966Z,974.11
2018-08-22T04:47:58.968Z,974.11
2018-08-22T04:48:58.956Z,974.11
2018-08-22T04:49:58.957Z,974.14
2018-08-22T04:50:58.955Z,974.17
2018-08-22T04:51:58.949Z,974.15
2018-08-22T04:52:58.944Z,974.17
2018-08-22T04:53:58.942Z,974.18
2018-08-22T04:54:58.945Z,974.18
2018-08-22T04:55:58.975Z,974.19
2018-08-22T04:56:58.936Z,974.17
2018-08-22T04:57:58.934Z,974.19
2018-08-22T04:58:58.946Z,974.21
2018-08-22T04:59:58.928Z,974.19
2018-08-22T05:00:58.932Z,974.23
2018-08-22T05:01:58.920Z,974.23
2018-08-22T05:02:58.929Z,974.21
2018-08-22T05:03:58.923Z,974.24
2018-08-22T05:04:58.919Z,974.27
2018-08-22T05:05:58.968Z,974.26
2018-08-22T05:06:58.909Z,974.24
2018-08-22T05:07:58.906Z,974.27
2018-08-22T05:08:58.911Z,974.26
2018-08-22T05:09:58.900Z,974.28
2018-08-22T05:10:58.901Z,974.31
2018-08-22T05:11:58.899Z,974.33
2018-08-22T05:12:58.898Z,974.34
2018-08-22T05:13:58.894Z,974.34
2018-08-22T05:14:58.887Z,974.34
2018-08-22T05:15:58.884Z,974.37
2018-08-22T05:16:58.888Z,974.37
2018-08-22T05:17:58.883Z,974.44
2018-08-22T05:18:58.878Z,974.44
2018-08-22T05:19:58.874Z,974.40
2018-08-22T05:20:58.872Z,974.44
2018-08-22T05:21:58.869Z,974.43
2018-08-22T05:22:58.870Z,974.46
2018-08-22T05:23:58.871Z,974.48
2018-08-22T05:24:58.862Z,974.48
2018-08-22T05:25:58.866Z,974.49
2018-08-22T05:26:58.859Z,974.50
2018-08-22T05:27:58.858Z,974.51
2018-08-22T05:28:58.853Z,974.55
2018-08-22T05:29:58.855Z,974.54
2018-08-22T05:30:58.851Z,974.56
2018-08-22T05:31:58.859Z,974.58
2018-08-22T05:32:58.854Z,974.51
2018-08-22T05:33:58.844Z,974.56
2018-08-22T05:34:58.853Z,974.48
2018-08-22T05:35:58.847Z,974.52
2018-08-22T05:36:58.840Z,974.48
2018-08-22T05:37:58.839Z,974.48
2018-08-22T05:38:58.838Z,974.48
2018-08-22T05:39:58.842Z,974.49
2018-08-22T05:40:58.835Z,974.48
2018-08-22T05:41:58.832Z,974.52
2018-08-22T05:42:58.834Z,974.49
2018-08-22T05:43:58.831Z,974.52
2018-08-22T05:44:58.824Z,974.52
2018-08-22T05:45:58.823Z,974.55
2018-08-22T05:46:58.825Z,974.53
2018-08-22T05:47:58.824Z,974.57
2018-08-22T05:48:58.817Z,974.60
2018-08-22T05:49:58.823Z,974.57
2018-08-22T05:50:58.818Z,974.61
2018-08-22T05:51:58.817Z,974.63
2018-08-22T05:52:58.812Z,974.64
2018-08-22T05:53:58.813Z,974.67
2018-08-22T05:54:58.813Z,974.65
2018-08-22T05:55:58.812Z,974.64
2018-08-22T05:56:58.806Z,974.70
2018-08-22T05:57:58.806Z,974.71
2018-08-22T05:58:58.804Z,974.70
2018-08-22T05:59:58.808Z,974.69
2018-08-22T06:00:58.800Z,974.72
2018-08-22T06:01:58.813Z,974.69
2018-08-22T06:02:58.800Z,974.71
2018-08-22T06:03:58.796Z,974.69
2018-08-22T06:04:58.795Z,974.73
2018-08-22T06:05:58.798Z,974.73
2018-08-22T06:06:58.796Z,974.72
2018-08-22T06:07:58.794Z,974.76
2018-08-22T06:08:58.790Z,974.76
2018-08-22T06:09:58.789Z,974.72
2018-08-22T06:10:58.796Z,974.72
2018-08-22T06:11:58.788Z,974.72
2018-08-22T06:12:58.788Z,974.74
2018-08-22T06:13:58.789Z,974.70
2018-08-22T06:14:58.792Z,974.73
2018-08-22T06:15:58.785Z,974.73
2018-08-22T06:16:58.785Z,974.71
2018-08-22T06:17:58.786Z,974.74
2018-08-22T06:18:58.789Z,974.72
2018-08-22T06:19:58.883Z,974.74
2018-08-22T06:20:58.783Z,974.76
2018-08-22T06:21:58.784Z,974.77
2018-08-22T06:22:58.788Z,974.73
2018-08-22T06:23:58.786Z,974.75
2018-08-22T06:24:58.780Z,974.77
2018-08-22T06:25:58.777Z,974.78
2018-08-22T06:26:58.776Z,974.73
2018-08-22T06:27:58.776Z,974.73
2018-08-22T06:28:58.779Z,974.74
2018-08-22T06:29:58.781Z,974.73
2018-08-22T06:30:58.778Z,974.68
2018-08-22T06:31:58.781Z,974.66
2018-08-22T06:32:58.784Z,974.68
2018-08-22T06:33:58.774Z,974.72
2018-08-22T06:34:58.771Z,974.62
2018-08-22T06:35:58.776Z,974.67
2018-08-22T06:36:58.774Z,974.68
2018-08-22T06:37:58.779Z,974.71
2018-08-22T06:38:58.767Z,974.70
2018-08-22T06:39:58.768Z,974.71
2018-08-22T06:40:58.768Z,974.66
2018-08-22T06:41:58.765Z,974.69
2018-08-22T06:42:58.772Z,974.68
2018-08-22T06:43:58.767Z,974.69
2018-08-22T06:44:58.765Z,974.76
2018-08-22T06:45:58.765Z,974.69
2018-08-22T06:46:58.768Z,974.71
2018-08-22T06:47:58.774Z,974.70
2018-08-22T06:48:58.764Z,974.69
2018-08-22T06:49:58.768Z,974.64
2018-08-22T06:50:58.767Z,974.65
2018-08-22T06:51:58.762Z,974.69
2018-08-22T06:52:58.768Z,974.69
2018-08-22T06:53:58.765Z,974.71
2018-08-22T06:54:58.767Z,974.68
2018-08-22T06:55:58.770Z,974.68
2018-08-22T06:56:58.801Z,974.69
2018-08-22T06:57:58.762Z,974.69
2018-08-22T06:58:58.762Z,974.66
2018-08-22T06:59:58.763Z,974.69
2018-08-22T07:00:58.765Z,974.67
2018-08-22T07:01:58.773Z,974.66
2018-08-22T07:02:58.762Z,974.68
2018-08-22T07:03:58.766Z,974.68
2018-08-22T07:04:58.761Z,974.65
2018-08-22T07:05:58.761Z,974.68
2018-08-22T07:06:58.764Z,974.65
2018-08-22T07:07:58.785Z,974.67
2018-08-22T07:08:58.764Z,974.66
2018-08-22T07:09:58.768Z,974.65
2018-08-22T07:10:58.771Z,974.63
2018-08-22T07:11:58.764Z,974.62
2018-08-22T07:12:58.765Z,974.60
2018-08-22T07:13:58.773Z,974.59
2018-08-22T07:14:58.765Z,974.59
2018-08-22T07:15:58.765Z,974.59
2018-08-22T07:16:58.766Z,974.60
2018-08-22T07:17:58.766Z,974.59
2018-08-22T07:18:58.771Z,974.55
2018-08-22T07:19:58.771Z,974.60
2018-08-22T07:20:58.835Z,974.60
2018-08-22T07:21:58.766Z,974.62
2018-08-22T07:22:58.768Z,974.59
2018-08-22T07:23:58.768Z,974.55
2018-08-22T07:24:58.771Z,974.56
2018-08-22T07:25:58.770Z,974.56
2018-08-22T07:26:58.770Z,974.55
2018-08-22T07:27:58.767Z,974.55
2018-08-22T07:28:58.769Z,974.53
2018-08-22T07:29:58.780Z,974.54
2018-08-22T07:30:58.769Z,974.58
2018-08-22T07:31:58.773Z,974.57
2018-08-22T07:32:58.772Z,974.57
2018-08-22T07:33:58.770Z,974.56
2018-08-22T07:34:58.776Z,974.57
2018-08-22T07:35:58.772Z,974.55
2018-08-22T07:36:58.777Z,974.56
2018-08-22T07:37:58.778Z,974.57
2018-08-22T07:38:58.775Z,974.54
2018-08-22T07:39:58.773Z,974.53
2018-08-22T07:40:58.782Z,974.53
2018-08-22T07:41:58.774Z,974.49
2018-08-22T07:42:58.776Z,974.51
2018-08-22T07:43:58.776Z,974.54
2018-08-22T07:44:58.784Z,974.54
2018-08-22T07:45:58.784Z,974.53
2018-08-22T07:46:58.802Z,974.53
2018-08-22T07:47:58.782Z,974.56
2018-08-22T07:48:58.781Z,974.52
2018-08-22T07:49:58.785Z,974.56
2018-08-22T07:50:58.791Z,974.53
2018-08-22T07:51:58.789Z,974.52
2018-08-22T07:52:58.790Z,974.53
2018-08-22T07:53:58.792Z,974.56
2018-08-22T07:54:58.790Z,974.55
2018-08-22T07:55:58.788Z,974.57
2018-08-22T07:56:58.794Z,974.54
2018-08-22T07:57:58.793Z,974.55
2018-08-22T07:58:58.790Z,974.59
2018-08-22T07:59:58.799Z,974.56
2018-08-22T08:00:58.797Z,974.61
2018-08-22T08:01:58.910Z,974.60
2018-08-22T08:02:58.796Z,974.60
2018-08-22T08:03:58.798Z,974.57
2018-08-22T08:04:58.805Z,974.63
2018-08-22T08:05:58.806Z,974.62
2018-08-22T08:06:58.842Z,974.60
2018-08-22T08:07:58.803Z,974.65
2018-08-22T08:08:58.804Z,974.61
2018-08-22T08:09:58.809Z,974.61
2018-08-22T08:10:58.867Z,974.63
2018-08-22T08:11:58.809Z,974.61
2018-08-22T08:12:58.811Z,974.61
2018-08-22T08:13:58.818Z,974.63
2018-08-22T08:14:58.814Z,974.61
2018-08-22T08:15:58.819Z,974.62
2018-08-22T08:16:58.834Z,974.62
2018-08-22T08:17:58.820Z,974.63
2018-08-22T08:18:58.821Z,974.62
2018-08-22T08:19:58.822Z,974.62
2018-08-22T08:20:58.823Z,974.59
2018-08-22T08:21:58.833Z,974.60
2018-08-22T08:22:58.834Z,974.62
2018-08-22T08:23:58.840Z,974.61
2018-08-22T08:24:58.830Z,974.61
2018-08-22T08:25:58.886Z,974.61
2018-08-22T08:26:58.841Z,974.65
2018-08-22T08:27:58.842Z,974.64
2018-08-22T08:28:58.845Z,974.64
2018-08-22T08:29:58.848Z,974.60
2018-08-22T08:30:58.848Z,974.61
2018-08-22T08:31:58.846Z,974.59
2018-08-22T08:32:58.850Z,974.59
2018-08-22T08:33:58.851Z,974.59
2018-08-22T08:34:58.858Z,974.61
2018-08-22T08:35:58.912Z,974.63
2018-08-22T08:36:58.856Z,974.56
2018-08-22T08:37:58.859Z,974.57
2018-08-22T08:38:58.873Z,974.52
2018-08-22T08:39:58.868Z,974.52
2018-08-22T08:40:58.864Z,974.53
2018-08-22T08:41:58.874Z,974.51
2018-08-22T08:42:58.874Z,974.57
2018-08-22T08:43:58.877Z,974.51
2018-08-22T08:44:58.873Z,974.51
2018-08-22T08:45:58.879Z,974.50
2018-08-22T08:46:58.878Z,974.49
2018-08-22T08:47:58.883Z,974.50
2018-08-22T08:48:58.881Z,974.47
2018-08-22T08:49:58.885Z,974.49
2018-08-22T08:50:58.888Z,974.47
2018-08-22T08:51:58.889Z,974.44
2018-08-22T08:52:58.896Z,974.47
2018-08-22T08:53:58.899Z,974.45
2018-08-22T08:54:58.919Z,974.45
2018-08-22T08:55:58.901Z,974.45
2018-08-22T08:56:58.900Z,974.42
2018-08-22T08:57:58.914Z,974.43
2018-08-22T08:58:58.911Z,974.43
2018-08-22T08:59:58.925Z,974.41
2018-08-22T09:00:58.914Z,974.41
2018-08-22T09:01:58.919Z,974.40
2018-08-22T09:02:58.918Z,974.42
2018-08-22T09:03:58.967Z,974.41
2018-08-22T09:04:58.927Z,974.45
2018-08-22T09:05:58.924Z,974.43
2018-08-22T09:06:58.937Z,974.38
2018-08-22T09:07:58.936Z,974.40
2018-08-22T09:08:58.934Z,974.38
2018-08-22T09:09:58.937Z,974.42
2018-08-22T09:10:58.937Z,974.35
2018-08-22T09:11:58.944Z,974.33
2018-08-22T09:12:58.946Z,974.31
2018-08-22T09:13:58.944Z,974.30
2018-08-22T09:14:58.947Z,974.32
2018-08-22T09:15:58.957Z,974.33
2018-08-22T09:16:58.956Z,974.32
2018-08-22T09:17:58.957Z,974.28
2018-08-22T09:18:58.962Z,974.28
2018-08-22T09:19:58.961Z,974.25
2018-08-22T09:20:58.992Z,974.26
2018-08-22T09:21:58.968Z,974.27
2018-08-22T09:22:58.976Z,974.25
2018-08-22T09:23:58.978Z,974.24
2018-08-22T09:24:58.981Z,974.22
2018-08-22T09:25:58.985Z,974.22
2018-08-22T09:26:58.982Z,974.24
2018-08-22T09:27:59.020Z,974.19
2018-08-22T09:28:58.994Z,974.20
2018-08-22T09:29:59.001Z,974.20
2018-08-22T09:30:58.995Z,974.20
2018-08-22T09:31:59.002Z,974.19
2018-08-22T09:32:59.006Z,974.17
2018-08-22T09:33:59.002Z,974.20
2018-08-22T09:34:59.005Z,974.17
2018-08-22T09:35:59.010Z,974.13
2018-08-22T09:36:59.040Z,974.15
2018-08-22T09:37:59.016Z,974.15
2018-08-22T09:38:59.020Z,974.13
2018-08-22T09:39:59.071Z,974.11
2018-08-22T09:40:59.024Z,974.13
2018-08-22T09:41:59.033Z,974.14
2018-08-22T09:42:59.030Z,974.09
2018-08-22T09:43:59.035Z,974.12
2018-08-22T09:44:59.038Z,974.10
2018-08-22T09:45:59.043Z,974.11
2018-08-22T09:46:59.049Z,974.10
2018-08-22T09:47:59.053Z,974.08
2018-08-22T09:48:59.053Z,974.07
2018-08-22T09:49:59.053Z,974.12
2018-08-22T09:50:59.188Z,974.08
2018-08-22T09:51:59.059Z,974.04
2018-08-22T09:52:59.063Z,974.01
2018-08-22T09:53:59.065Z,974.02
2018-08-22T09:54:59.069Z,974.01
2018-08-22T09:55:59.084Z,974.02
2018-08-22T09:56:59.077Z,974.00
2018-08-22T09:57:59.086Z,973.98
2018-08-22T09:58:59.083Z,974.01
2018-08-22T09:59:59.120Z,973.99
2018-08-22T10:00:59.090Z,973.98
2018-08-22T10:01:59.096Z,974.00
2018-08-22T10:02:59.098Z,973.99
2018-08-22T10:03:59.100Z,973.95
2018-08-22T10:04:59.102Z,973.97
2018-08-22T10:05:59.107Z,973.99
2018-08-22T10:06:59.130Z,973.98
2018-08-22T10:07:59.117Z,973.93
2018-08-22T10:08:59.115Z,973.96
2018-08-22T10:09:59.282Z,973.93
2018-08-22T10:10:59.130Z,973.90
2018-08-22T10:11:59.160Z,973.89
2018-08-22T10:12:59.130Z,973.90
2018-08-22T10:13:59.142Z,973.86
2018-08-22T10:14:59.137Z,973.87
2018-08-22T10:15:59.147Z,973.83
2018-08-22T10:16:59.147Z,973.82
2018-08-22T10:17:59.147Z,973.81
2018-08-22T10:18:59.216Z,973.79
2018-08-22T10:19:59.158Z,973.76
2018-08-22T10:20:59.158Z,973.79
2018-08-22T10:21:59.162Z,973.74
2018-08-22T10:22:59.171Z,973.76
2018-08-22T10:23:59.171Z,973.72
2018-08-22T10:24:59.179Z,973.76
2018-08-22T10:25:59.182Z,973.77
2018-08-22T10:26:59.198Z,973.78
2018-08-22T10:27:59.191Z,973.77
2018-08-22T10:28:59.187Z,973.72
2018-08-22T10:29:59.193Z,973.70
2018-08-22T10:30:59.195Z,973.68
2018-08-22T10:31:59.200Z,973.68
2018-08-22T10:32:59.259Z,973.69
2018-08-22T10:33:59.212Z,973.67
2018-08-22T10:34:59.211Z,973.64
2018-08-22T10:35:59.222Z,973.62
2018-08-22T10:36:59.224Z,973.65
2018-08-22T10:37:59.227Z,973.61
2018-08-22T10:38:59.228Z,973.62
2018-08-22T10:39:59.240Z,973.60
2018-08-22T10:40:59.236Z,973.56
2018-08-22T10:41:59.243Z,973.57
2018-08-22T10:42:59.242Z,973.54
2018-08-22T10:43:59.252Z,973.54
2018-08-22T10:44:59.251Z,973.54
2018-08-22T10:45:59.256Z,973.50
2018-08-22T10:46:59.257Z,973.50
2018-08-22T10:47:59.270Z,973.48
2018-08-22T10:48:59.270Z,973.51
2018-08-22T10:49:59.274Z,973.52
2018-08-22T10:50:59.272Z,973.51
2018-08-22T10:51:59.282Z,973.49
2018-08-22T10:52:59.280Z,973.49
2018-08-22T10:53:59.334Z,973.42
2018-08-22T10:54:59.289Z,973.40
2018-08-22T10:55:59.299Z,973.41
2018-08-22T10:56:59.298Z,973.40
2018-08-22T10:57:59.300Z,973.39
2018-08-22T10:58:59.305Z,973.37
2018-08-22T10:59:59.309Z,973.41
2018-08-22T11:00:59.317Z,973.38
2018-08-22T11:01:59.324Z,973.36
2018-08-22T11:02:59.329Z,973.32
2018-08-22T11:03:59.331Z,973.35
2018-08-22T11:04:59.335Z,973.38
2018-08-22T11:05:59.341Z,973.36
2018-08-22T11:06:59.338Z,973.33
2018-08-22T11:07:59.353Z,973.33
2018-08-22T11:08:59.353Z,973.35
2018-08-22T11:09:59.471Z,973.36
2018-08-22T11:10:59.357Z,973.31
2018-08-22T11:11:59.364Z,973.35
2018-08-22T11:12:59.368Z,973.29
2018-08-22T11:13:59.376Z,973.29
2018-08-22T11:14:59.374Z,973.28
2018-08-22T11:15:59.421Z,973.27
2018-08-22T11:16:59.391Z,973.28
2018-08-22T11:17:59.388Z,973.25
2018-08-22T11:18:59.393Z,973.28
2018-08-22T11:19:59.402Z,973.29
2018-08-22T11:20:59.401Z,973.29
2018-08-22T11:21:59.410Z,973.24
2018-08-22T11:22:59.411Z,973.22
2018-08-22T11:23:59.424Z,973.25
2018-08-22T11:24:59.426Z,973.22
2018-08-22T11:25:59.431Z,973.23
2018-08-22T11:26:59.433Z,973.24
2018-08-22T11:27:59.441Z,973.20
2018-08-22T11:28:59.441Z,973.17
2018-08-22T11:29:59.449Z,973.20
2018-08-22T11:30:59.457Z,973.17
2018-08-22T11:31:59.456Z,973.18
2018-08-22T11:32:59.457Z,973.17
2018-08-22T11:33:59.462Z,973.15
2018-08-22T11:34:59.469Z,973.18
2018-08-22T11:35:59.472Z,973.17
2018-08-22T11:36:59.480Z,973.18
2018-08-22T11:37:59.483Z,973.13
2018-08-22T11:38:59.489Z,973.13
2018-08-22T11:39:59.491Z,973.11
2018-08-22T11:40:59.502Z,973.12
2018-08-22T11:41:59.502Z,973.08
2018-08-22T11:42:59.505Z,973.09
2018-08-22T11:43:59.510Z,973.08
2018-08-22T11:44:59.517Z,973.07
2018-08-22T11:45:59.521Z,973.02
2018-08-22T11:46:59.525Z,973.04
2018-08-22T11:47:59.536Z,973.05
2018-08-22T11:48:59.535Z,973.03
2018-08-22T11:49:59.546Z,973.01
2018-08-22T11:50:59.545Z,973.03
2018-08-22T11:51:59.549Z,972.99
2018-08-22T11:52:59.561Z,973.00
2018-08-22T11:53:59.563Z,973.00
2018-08-22T11:54:59.569Z,973.02
2018-08-22T11:55:59.586Z,973.00
2018-08-22T11:56:59.573Z,973.01
2018-08-22T11:57:59.582Z,972.99
2018-08-22T11:58:59.583Z,973.00
2018-08-22T11:59:59.597Z,972.97
2018-08-22T12:00:59.594Z,972.94
2018-08-22T12:01:59.669Z,972.95
2018-08-22T12:02:59.613Z,972.94
2018-08-22T12:03:59.610Z,972.90
2018-08-22T12:04:59.619Z,972.90
2018-08-22T12:05:59.621Z,972.89
2018-08-22T12:06:59.628Z,972.88
2018-08-22T12:07:59.639Z,972.85
2018-08-22T12:08:59.641Z,972.83
2018-08-22T12:09:59.644Z,972.84
2018-08-22T12:10:59.651Z,972.84
2018-08-22T12:11:59.655Z,972.85
2018-08-22T12:12:59.659Z,972.85
2018-08-22T12:13:59.663Z,972.77
2018-08-22T12:14:59.668Z,972.76
2018-08-22T12:15:59.717Z,972.75
2018-08-22T12:16:59.683Z,972.73
2018-08-22T12:17:59.685Z,972.74
2018-08-22T12:18:59.698Z,972.71
2018-08-22T12:19:59.698Z,972.72
2018-08-22T12:20:59.701Z,972.71
2018-08-22T12:21:59.714Z,972.75
2018-08-22T12:22:59.832Z,972.75
2018-08-22T12:23:59.726Z,972.70
2018-08-22T12:24:59.725Z,972.73
2018-08-22T12:25:59.733Z,972.70
2018-08-22T12:26:59.740Z,972.71
2018-08-22T12:27:59.741Z,972.68
2018-08-22T12:28:59.747Z,972.65